createdAt,value
2017-07-25T00:00:11.923Z,88.90
2017-07-25T00:01:12.564Z,87.84
2017-07-25T00:02:13.199Z,88.32
2017-07-25T00:03:14.030Z,87.84
2017-07-25T00:04:14.670Z,88.61
2017-07-25T00:05:15.298Z,88.13
2017-07-25T00:06:15.942Z,88.81
2017-07-25T00:07:16.584Z,89.39
2017-07-25T00:08:17.219Z,88.61
2017-07-25T00:09:17.850Z,88.90
2017-07-25T00:10:18.484Z,89.39
2017-07-25T00:11:19.281Z,87.03
2017-07-25T00:12:19.911Z,88.61
2017-07-25T00:13:20.545Z,88.76
2017-07-25T00:14:21.183Z,88.51
2017-07-25T00:15:21.816Z,89.19
2017-07-25T00:16:22.455Z,87.74
2017-07-25T00:17:23.088Z,89.43
2017-07-25T00:18:23.722Z,87.55
2017-07-25T00:19:24.454Z,88.04
2017-07-25T00:20:25.090Z,88.09
2017-07-25T00:21:25.727Z,88.90
2017-07-25T00:22:26.361Z,88.09
2017-07-25T00:23:26.993Z,89.63
2017-07-25T00:24:27.627Z,88.38
2017-07-25T00:25:28.267Z,89.53
2017-07-25T00:26:28.906Z,90.11
2017-07-25T00:27:29.538Z,90.50
2017-07-25T00:28:30.333Z,87.41
2017-07-25T00:29:30.968Z,88.38
2017-07-25T00:30:31.604Z,88.18
2017-07-25T00:31:32.237Z,87.70
2017-07-25T00:32:32.873Z,89.77
2017-07-25T00:33:33.511Z,88.76
2017-07-25T00:34:34.148Z,88.67
2017-07-25T00:35:34.783Z,89.34
2017-07-25T00:36:35.616Z,87.99
2017-07-25T00:37:36.252Z,89.29
2017-07-25T00:38:36.887Z,89.39
2017-07-25T00:39:37.528Z,89.00
2017-07-25T00:40:38.164Z,90.20
2017-07-25T00:41:38.803Z,88.57
2017-07-25T00:42:39.432Z,89.67
2017-07-25T00:43:40.074Z,89.92
2017-07-25T00:44:40.903Z,89.92
2017-07-25T00:45:41.546Z,89.48
2017-07-25T00:46:42.178Z,89.09
2017-07-25T00:47:42.815Z,88.04
2017-07-25T00:48:43.456Z,88.81
2017-07-25T00:49:44.091Z,89.77
2017-07-25T00:50:44.727Z,89.63
2017-07-25T00:51:45.363Z,90.06
2017-07-25T00:52:46.150Z,90.83
2017-07-25T00:53:46.781Z,89.96
2017-07-25T00:54:47.371Z,89.86
2017-07-25T00:55:48.006Z,89.48
2017-07-25T00:56:48.638Z,90.44
2017-07-25T00:57:49.278Z,89.29
2017-07-25T00:58:49.909Z,89.29
2017-07-25T00:59:50.546Z,87.94
2017-07-25T01:00:51.332Z,90.06
2017-07-25T01:01:51.979Z,89.29
2017-07-25T01:02:52.611Z,89.77
2017-07-25T01:03:53.242Z,89.09
2017-07-25T01:04:53.881Z,89.00
2017-07-25T01:05:54.518Z,90.64
2017-07-25T01:06:55.149Z,89.77
2017-07-25T01:07:55.784Z,90.25
2017-07-25T01:08:56.416Z,88.51
2017-07-25T01:09:57.314Z,88.51
2017-07-25T01:10:57.944Z,88.51
2017-07-25T01:11:58.583Z,89.39
2017-07-25T01:12:59.227Z,88.81
2017-07-25T01:13:59.862Z,88.81
2017-07-25T01:15:00.493Z,89.19
2017-07-25T01:16:01.128Z,88.51
2017-07-25T01:17:01.767Z,89.19
2017-07-25T01:18:02.552Z,89.48
2017-07-25T01:19:03.188Z,89.58
2017-07-25T01:20:03.822Z,89.48
2017-07-25T01:21:04.454Z,89.77
2017-07-25T01:22:05.088Z,89.09
2017-07-25T01:23:05.730Z,90.44
2017-07-25T01:24:06.366Z,90.44
2017-07-25T01:25:07.003Z,90.06
2017-07-25T01:26:07.838Z,90.25
2017-07-25T01:27:08.476Z,90.44
2017-07-25T01:28:09.111Z,89.86
2017-07-25T01:29:09.793Z,89.58
2017-07-25T01:30:10.435Z,89.96
2017-07-25T01:31:11.071Z,89.67
2017-07-25T01:32:11.708Z,89.96
2017-07-25T01:33:12.356Z,90.25
2017-07-25T01:34:13.126Z,89.58
2017-07-25T01:35:13.761Z,89.48
2017-07-25T01:36:14.395Z,89.77
2017-07-25T01:37:15.032Z,89.67
2017-07-25T01:38:15.920Z,89.48
2017-07-25T01:39:16.556Z,89.67
2017-07-25T01:40:17.191Z,90.54
2017-07-25T01:41:17.882Z,89.96
2017-07-25T01:42:18.524Z,90.06
2017-07-25T01:43:19.351Z,89.86
2017-07-25T01:44:19.987Z,90.06
2017-07-25T01:45:20.621Z,89.86
2017-07-25T01:46:21.254Z,90.64
2017-07-25T01:47:21.895Z,89.58
2017-07-25T01:48:22.530Z,89.67
2017-07-25T01:49:23.160Z,89.39
2017-07-25T01:50:23.792Z,90.06
2017-07-25T01:51:24.584Z,89.58
2017-07-25T01:52:25.220Z,90.06
2017-07-25T01:53:25.853Z,89.29
2017-07-25T01:54:26.488Z,89.29
2017-07-25T01:55:27.126Z,90.44
2017-07-25T01:56:27.763Z,90.92
2017-07-25T01:57:28.402Z,90.06
2017-07-25T01:58:29.031Z,90.16
2017-07-25T01:59:29.873Z,90.16
2017-07-25T02:00:30.505Z,90.44
2017-07-25T02:01:31.144Z,89.67
2017-07-25T02:02:31.776Z,89.39
2017-07-25T02:03:32.461Z,89.77
2017-07-25T02:04:33.096Z,89.77
2017-07-25T02:05:33.732Z,89.96
2017-07-25T02:06:34.370Z,89.67
2017-07-25T02:07:35.215Z,89.58
2017-07-25T02:08:35.841Z,89.48
2017-07-25T02:09:36.480Z,89.48
2017-07-25T02:10:37.120Z,90.06
2017-07-25T02:11:37.753Z,89.39
2017-07-25T02:12:38.384Z,89.09
2017-07-25T02:13:39.019Z,89.58
2017-07-25T02:14:39.665Z,89.39
2017-07-25T02:15:40.501Z,89.77
2017-07-25T02:16:41.137Z,89.67
2017-07-25T02:17:41.775Z,89.77
2017-07-25T02:18:42.418Z,89.58
2017-07-25T02:19:43.043Z,89.86
2017-07-25T02:20:43.676Z,89.96
2017-07-25T02:21:44.317Z,89.86
2017-07-25T02:22:44.950Z,89.48
2017-07-25T02:23:45.586Z,90.44
2017-07-25T02:24:46.369Z,89.67
2017-07-25T02:25:47.001Z,89.29
2017-07-25T02:26:47.642Z,90.44
2017-07-25T02:27:48.277Z,89.92
2017-07-25T02:28:48.909Z,89.96
2017-07-25T02:29:49.546Z,89.92
2017-07-25T02:30:50.179Z,90.06
2017-07-25T02:31:50.825Z,89.72
2017-07-25T02:32:51.606Z,89.39
2017-07-25T02:33:52.239Z,89.67
2017-07-25T02:34:52.883Z,90.64
2017-07-25T02:35:53.518Z,89.86
2017-07-25T02:36:54.154Z,90.64
2017-07-25T02:37:54.793Z,89.92
2017-07-25T02:38:55.421Z,90.01
2017-07-25T02:39:56.059Z,90.59
2017-07-25T02:40:56.844Z,91.50
2017-07-25T02:41:57.483Z,89.96
2017-07-25T02:42:58.119Z,90.54
2017-07-25T02:43:58.758Z,90.30
2017-07-25T02:44:59.388Z,89.92
2017-07-25T02:46:00.023Z,90.30
2017-07-25T02:47:00.667Z,90.01
2017-07-25T02:48:01.294Z,90.40
2017-07-25T02:49:02.079Z,89.58
2017-07-25T02:50:02.721Z,90.50
2017-07-25T02:51:03.351Z,90.59
2017-07-25T02:52:03.987Z,90.16
2017-07-25T02:53:04.620Z,90.30
2017-07-25T02:54:05.257Z,90.34
2017-07-25T02:55:05.895Z,90.44
2017-07-25T02:56:06.525Z,90.40
2017-07-25T02:57:07.167Z,90.54
2017-07-25T02:58:07.996Z,90.01
2017-07-25T02:59:08.629Z,89.67
2017-07-25T03:00:09.276Z,90.83
2017-07-25T03:01:09.865Z,89.86
2017-07-25T03:02:10.498Z,90.50
2017-07-25T03:03:11.136Z,89.63
2017-07-25T03:04:11.771Z,89.77
2017-07-25T03:05:12.402Z,89.92
2017-07-25T03:06:13.236Z,89.82
2017-07-25T03:07:13.870Z,90.11
2017-07-25T03:08:14.505Z,89.72
2017-07-25T03:09:15.139Z,90.50
2017-07-25T03:10:15.777Z,90.44
2017-07-25T03:11:16.409Z,89.92
2017-07-25T03:12:17.049Z,90.40
2017-07-25T03:13:17.686Z,90.59
2017-07-25T03:14:18.523Z,90.50
2017-07-25T03:15:19.156Z,90.34
2017-07-25T03:16:19.792Z,90.40
2017-07-25T03:17:20.430Z,90.50
2017-07-25T03:18:21.067Z,90.44
2017-07-25T03:19:21.702Z,90.54
2017-07-25T03:20:22.346Z,90.20
2017-07-25T03:21:22.987Z,90.34
2017-07-25T03:22:23.765Z,90.50
2017-07-25T03:23:24.401Z,90.59
2017-07-25T03:24:25.045Z,90.83
2017-07-25T03:25:25.674Z,89.53
2017-07-25T03:26:26.311Z,90.50
2017-07-25T03:27:26.946Z,90.50
2017-07-25T03:28:27.577Z,90.30
2017-07-25T03:29:28.215Z,89.82
2017-07-25T03:30:29.313Z,90.20
2017-07-25T03:31:29.943Z,90.40
2017-07-25T03:32:30.573Z,90.40
2017-07-25T03:33:31.215Z,89.43
2017-07-25T03:34:31.848Z,89.92
2017-07-25T03:35:32.484Z,90.01
2017-07-25T03:36:33.121Z,89.92
2017-07-25T03:37:33.765Z,89.82
2017-07-25T03:38:34.404Z,90.20
2017-07-25T03:39:35.182Z,89.82
2017-07-25T03:40:35.773Z,88.47
2017-07-25T03:41:36.403Z,88.67
2017-07-25T03:42:37.042Z,88.67
2017-07-25T03:43:37.677Z,89.34
2017-07-25T03:44:38.310Z,89.43
2017-07-25T03:45:38.948Z,89.82
2017-07-25T03:46:39.582Z,90.50
2017-07-25T03:47:40.366Z,89.63
2017-07-25T03:48:41.001Z,89.20
2017-07-25T03:49:41.638Z,89.63
2017-07-25T03:50:42.271Z,90.64
2017-07-25T03:51:42.907Z,89.68
2017-07-25T03:52:43.540Z,90.40
2017-07-25T03:53:44.174Z,89.49
2017-07-25T03:54:44.806Z,90.40
2017-07-25T03:55:45.645Z,90.35
2017-07-25T03:56:46.281Z,90.50
2017-07-25T03:57:46.920Z,91.65
2017-07-25T03:58:47.553Z,89.92
2017-07-25T03:59:48.192Z,89.97
2017-07-25T04:00:48.825Z,91.84
2017-07-25T04:01:49.457Z,90.69
2017-07-25T04:02:50.093Z,91.46
2017-07-25T04:03:50.939Z,90.59
2017-07-25T04:04:51.629Z,89.63
2017-07-25T04:05:52.272Z,91.17
2017-07-25T04:06:52.911Z,90.30
2017-07-25T04:07:53.543Z,89.72
2017-07-25T04:08:54.182Z,91.27
2017-07-25T04:09:54.819Z,90.30
2017-07-25T04:10:55.454Z,91.46
2017-07-25T04:11:56.084Z,90.69
2017-07-25T04:12:56.921Z,90.20
2017-07-25T04:13:57.556Z,90.59
2017-07-25T04:14:58.190Z,90.30
2017-07-25T04:15:58.830Z,90.50
2017-07-25T04:16:59.466Z,91.46
2017-07-25T04:18:00.104Z,90.69
2017-07-25T04:19:00.747Z,91.46
2017-07-25T04:20:01.382Z,90.20
2017-07-25T04:21:02.162Z,90.11
2017-07-25T04:22:02.798Z,91.27
2017-07-25T04:23:03.432Z,89.92
2017-07-25T04:24:04.067Z,89.72
2017-07-25T04:25:04.702Z,90.59
2017-07-25T04:26:05.337Z,90.26
2017-07-25T04:27:05.969Z,89.92
2017-07-25T04:28:06.604Z,89.68
2017-07-25T04:29:07.395Z,89.68
2017-07-25T04:30:08.026Z,89.58
2017-07-25T04:31:08.668Z,90.59
2017-07-25T04:32:09.302Z,89.82
2017-07-25T04:33:09.941Z,89.68
2017-07-25T04:34:10.574Z,89.39
2017-07-25T04:35:11.208Z,91.31
2017-07-25T04:37:15.043Z,89.87
2017-07-25T04:38:15.681Z,90.55
2017-07-25T04:39:16.322Z,89.68
2017-07-25T04:40:16.957Z,89.68
2017-07-25T04:41:17.594Z,89.78
2017-07-25T04:42:18.231Z,91.03
2017-07-25T04:43:18.873Z,90.06
2017-07-25T04:44:19.501Z,90.64
2017-07-25T04:45:20.336Z,90.35
2017-07-25T04:46:20.972Z,90.35
2017-07-25T04:47:21.605Z,89.68
2017-07-25T04:48:22.238Z,90.26
2017-07-25T04:49:22.872Z,89.49
2017-07-25T04:50:23.505Z,90.55
2017-07-25T04:51:24.140Z,90.45
2017-07-25T04:52:24.779Z,90.73
2017-07-25T04:53:25.412Z,90.35
2017-07-25T04:54:26.201Z,90.45
2017-07-25T04:55:26.833Z,90.35
2017-07-25T04:56:27.485Z,89.87
2017-07-25T04:57:28.109Z,90.64
2017-07-25T04:58:28.745Z,92.66
2017-07-25T04:59:29.381Z,91.60
2017-07-25T05:00:30.012Z,90.45
2017-07-25T05:01:30.653Z,90.45
2017-07-25T05:02:31.434Z,91.89
2017-07-25T05:03:32.070Z,91.99
2017-07-25T05:04:32.708Z,92.08
2017-07-25T05:05:33.343Z,91.03
2017-07-25T05:06:34.028Z,90.45
2017-07-25T05:07:34.660Z,90.26
2017-07-25T05:08:35.295Z,90.55
2017-07-25T05:09:35.928Z,90.83
2017-07-25T05:10:36.714Z,91.60
2017-07-25T05:11:37.349Z,90.26
2017-07-25T05:12:37.989Z,90.64
2017-07-25T05:13:38.619Z,91.31
2017-07-25T05:14:39.255Z,91.70
2017-07-25T05:15:39.889Z,90.45
2017-07-25T05:16:40.524Z,91.31
2017-07-25T05:17:41.160Z,91.89
2017-07-25T05:18:42.097Z,90.45
2017-07-25T05:19:42.730Z,92.71
2017-07-25T05:20:43.365Z,91.46
2017-07-25T05:21:44.001Z,91.17
2017-07-25T05:22:44.635Z,92.61
2017-07-25T05:23:45.277Z,91.41
2017-07-25T05:24:45.913Z,91.13
2017-07-25T05:25:46.554Z,91.46
2017-07-25T05:26:47.389Z,91.31
2017-07-25T05:27:48.028Z,91.31
2017-07-25T05:28:48.666Z,91.27
2017-07-25T05:29:49.354Z,91.13
2017-07-25T05:30:49.996Z,91.41
2017-07-25T05:31:50.630Z,91.75
2017-07-25T05:32:51.265Z,91.55
2017-07-25T05:33:51.907Z,90.64
2017-07-25T05:34:52.542Z,90.64
2017-07-25T05:35:53.429Z,91.51
2017-07-25T05:36:54.074Z,89.24
2017-07-25T05:37:54.761Z,91.03
2017-07-25T05:38:55.394Z,90.73
2017-07-25T05:39:56.036Z,91.51
2017-07-25T05:40:56.676Z,91.41
2017-07-25T05:41:57.314Z,91.46
2017-07-25T05:42:57.947Z,90.59
2017-07-25T05:43:58.835Z,91.07
2017-07-25T05:44:59.471Z,90.35
2017-07-25T05:46:00.113Z,91.27
2017-07-25T05:47:00.747Z,91.36
2017-07-25T05:48:01.381Z,90.01
2017-07-25T05:49:02.026Z,90.11
2017-07-25T05:50:02.671Z,90.30
2017-07-25T05:51:03.307Z,90.59
2017-07-25T05:52:04.145Z,90.73
2017-07-25T05:53:04.789Z,90.69
2017-07-25T05:54:05.423Z,89.63
2017-07-25T05:55:06.061Z,90.45
2017-07-25T05:56:06.700Z,90.35
2017-07-25T05:57:07.336Z,89.92
2017-07-25T05:58:07.972Z,90.69
2017-07-25T05:59:08.610Z,91.46
2017-07-25T06:00:09.455Z,91.17
2017-07-25T06:01:10.089Z,90.06
2017-07-25T06:02:10.725Z,90.50
2017-07-25T06:03:11.366Z,91.46
2017-07-25T06:04:12.002Z,89.92
2017-07-25T06:05:12.696Z,89.53
2017-07-25T06:06:13.331Z,90.16
2017-07-25T06:07:13.968Z,89.78
2017-07-25T06:08:14.606Z,90.50
2017-07-25T06:09:15.395Z,90.69
2017-07-25T06:10:16.039Z,90.01
2017-07-25T06:11:16.669Z,89.72
2017-07-25T06:12:17.308Z,90.40
2017-07-25T06:13:17.951Z,91.07
2017-07-25T06:14:18.595Z,90.40
2017-07-25T06:15:19.241Z,90.30
2017-07-25T06:16:19.875Z,90.01
2017-07-25T06:17:20.708Z,89.34
2017-07-25T06:18:21.353Z,90.11
2017-07-25T06:19:21.986Z,91.46
2017-07-25T06:20:22.622Z,90.78
2017-07-25T06:21:23.261Z,88.95
2017-07-25T06:22:23.904Z,89.24
2017-07-25T06:23:24.538Z,89.24
2017-07-25T06:24:25.177Z,90.40
2017-07-25T06:25:26.068Z,89.05
2017-07-25T06:26:26.706Z,90.11
2017-07-25T06:27:27.355Z,90.20
2017-07-25T06:28:28.054Z,89.72
2017-07-25T06:29:28.682Z,89.24
2017-07-25T06:30:29.320Z,88.85
2017-07-25T06:31:29.956Z,89.24
2017-07-25T06:32:30.599Z,89.05
2017-07-25T06:33:31.389Z,88.85
2017-07-25T06:34:32.029Z,89.43
2017-07-25T06:35:32.671Z,89.82
2017-07-25T06:36:33.313Z,89.53
2017-07-25T06:37:33.952Z,89.15
2017-07-25T06:38:34.590Z,89.15
2017-07-25T06:39:35.236Z,90.01
2017-07-25T06:40:35.866Z,89.43
2017-07-25T06:41:36.712Z,89.43
2017-07-25T06:42:37.349Z,88.95
2017-07-25T06:43:37.988Z,89.96
2017-07-25T06:44:38.630Z,88.38
2017-07-25T06:45:39.270Z,90.25
2017-07-25T06:46:39.904Z,89.19
2017-07-25T06:47:40.545Z,89.48
2017-07-25T06:48:41.184Z,89.67
2017-07-25T06:49:41.819Z,89.15
2017-07-25T06:50:42.659Z,88.51
2017-07-25T06:51:43.309Z,88.57
2017-07-25T06:52:43.944Z,88.71
2017-07-25T06:53:44.586Z,88.09
2017-07-25T06:54:45.234Z,89.09
2017-07-25T06:55:45.869Z,88.61
2017-07-25T06:56:46.511Z,89.39
2017-07-25T06:57:47.145Z,88.51
2017-07-25T06:58:47.986Z,88.51
2017-07-25T06:59:48.630Z,88.13
2017-07-25T07:00:49.266Z,89.19
2017-07-25T07:01:49.903Z,88.81
2017-07-25T07:02:50.545Z,88.81
2017-07-25T07:03:51.190Z,89.00
2017-07-25T07:04:51.828Z,88.13
2017-07-25T07:05:52.466Z,88.04
2017-07-25T07:06:53.305Z,89.00
2017-07-25T07:07:53.951Z,88.23
2017-07-25T07:08:54.595Z,88.81
2017-07-25T07:09:55.230Z,87.94
2017-07-25T07:10:55.873Z,88.81
2017-07-25T07:11:56.509Z,88.13
2017-07-25T07:12:57.146Z,88.71
2017-07-25T07:13:57.785Z,87.65
2017-07-25T07:14:58.636Z,87.74
2017-07-25T07:15:59.269Z,87.74
2017-07-25T07:16:59.913Z,88.23
2017-07-25T07:18:00.558Z,87.74
2017-07-25T07:19:01.212Z,88.71
2017-07-25T07:20:01.901Z,88.71
2017-07-25T07:21:02.586Z,88.42
2017-07-25T07:22:03.224Z,88.71
2017-07-25T07:23:03.863Z,89.39
2017-07-25T07:24:04.653Z,88.42
2017-07-25T07:25:05.298Z,88.81
2017-07-25T07:26:05.938Z,89.09
2017-07-25T07:27:06.574Z,88.42
2017-07-25T07:28:07.222Z,89.29
2017-07-25T07:29:07.859Z,88.71
2017-07-25T07:30:08.496Z,88.81
2017-07-25T07:31:09.141Z,88.81
2017-07-25T07:32:09.982Z,88.13
2017-07-25T07:33:10.617Z,88.71
2017-07-25T07:34:11.254Z,89.19
2017-07-25T07:35:11.896Z,89.39
2017-07-25T07:36:12.541Z,89.29
2017-07-25T07:37:13.175Z,89.67
2017-07-25T07:38:13.817Z,89.39
2017-07-25T07:39:14.453Z,89.29
2017-07-25T07:40:15.248Z,88.51
2017-07-25T07:41:15.909Z,88.23
2017-07-25T07:42:16.526Z,89.19
2017-07-25T07:43:17.162Z,88.81
2017-07-25T07:44:17.801Z,88.90
2017-07-25T07:45:18.440Z,89.58
2017-07-25T07:46:19.085Z,89.19
2017-07-25T07:47:19.721Z,88.71
2017-07-25T07:48:20.559Z,88.04
2017-07-25T07:49:21.196Z,88.51
2017-07-25T07:50:21.847Z,89.48
2017-07-25T07:51:22.491Z,89.09
2017-07-25T07:52:23.125Z,89.77
2017-07-25T07:53:23.770Z,89.39
2017-07-25T07:54:24.421Z,89.39
2017-07-25T07:55:25.052Z,89.29
2017-07-25T07:56:25.835Z,87.46
2017-07-25T07:57:26.472Z,89.00
2017-07-25T07:58:27.117Z,87.84
2017-07-25T07:59:27.754Z,89.43
2017-07-25T08:00:28.397Z,89.72
2017-07-25T08:01:29.032Z,88.17
2017-07-25T08:02:29.669Z,89.14
2017-07-25T08:03:30.311Z,89.91
2017-07-25T08:04:30.951Z,90.00
2017-07-25T08:05:31.796Z,90.30
2017-07-25T08:06:32.436Z,88.65
2017-07-25T08:07:33.077Z,88.56
2017-07-25T08:08:33.718Z,87.70
2017-07-25T08:09:34.354Z,88.85
2017-07-25T08:10:35.001Z,88.75
2017-07-25T08:11:35.696Z,88.75
2017-07-25T08:12:36.337Z,88.95
2017-07-25T08:13:37.175Z,89.81
2017-07-25T08:14:37.811Z,89.33
2017-07-25T08:15:38.454Z,88.65
2017-07-25T08:16:39.088Z,87.98
2017-07-25T08:17:39.727Z,89.04
2017-07-25T08:18:40.366Z,87.21
2017-07-25T08:19:41.005Z,87.30
2017-07-25T08:20:41.644Z,87.40
2017-07-25T08:21:42.486Z,87.30
2017-07-25T08:22:43.123Z,87.02
2017-07-25T08:23:43.764Z,85.77
2017-07-25T08:24:44.402Z,85.77
2017-07-25T08:25:45.048Z,86.73
2017-07-25T08:26:45.683Z,88.17
2017-07-25T08:27:46.321Z,87.50
2017-07-25T08:28:46.969Z,87.88
2017-07-25T08:29:47.806Z,86.25
2017-07-25T08:30:48.456Z,86.54
2017-07-25T08:31:49.087Z,85.38
2017-07-25T08:32:49.737Z,84.90
2017-07-25T08:33:50.379Z,84.52
2017-07-25T08:34:51.012Z,85.47
2017-07-25T08:35:51.649Z,85.28
2017-07-25T08:36:52.291Z,85.96
2017-07-25T08:37:52.934Z,87.21
2017-07-25T08:38:53.717Z,85.77
2017-07-25T08:39:54.364Z,83.74
2017-07-25T08:40:55.002Z,83.74
2017-07-25T08:41:55.642Z,84.42
2017-07-25T08:42:56.279Z,86.44
2017-07-25T08:43:56.918Z,86.73
2017-07-25T08:44:57.556Z,85.67
2017-07-25T08:45:58.197Z,86.05
2017-07-25T08:46:59.037Z,87.12
2017-07-25T08:47:59.675Z,86.63
2017-07-25T08:49:00.320Z,85.28
2017-07-25T08:50:00.964Z,85.09
2017-07-25T08:51:01.614Z,84.80
2017-07-25T08:52:02.307Z,87.88
2017-07-25T08:53:02.946Z,85.77
2017-07-25T08:54:03.583Z,86.63
2017-07-25T08:55:04.382Z,86.44
2017-07-25T08:56:05.026Z,87.30
2017-07-25T08:57:05.659Z,84.12
2017-07-25T08:58:06.306Z,82.29
2017-07-25T08:59:06.947Z,84.61
2017-07-25T09:00:07.583Z,85.38
2017-07-25T09:01:08.228Z,83.74
2017-07-25T09:02:08.864Z,83.16
2017-07-25T09:03:09.802Z,84.90
2017-07-25T09:04:10.452Z,83.45
2017-07-25T09:05:11.088Z,83.55
2017-07-25T09:06:11.731Z,83.74
2017-07-25T09:07:12.365Z,83.55
2017-07-25T09:08:13.015Z,82.49
2017-07-25T09:09:13.660Z,83.07
2017-07-25T09:10:14.298Z,83.74
2017-07-25T09:11:15.086Z,84.90
2017-07-25T09:12:15.725Z,85.28
2017-07-25T09:13:16.368Z,84.03
2017-07-25T09:14:17.003Z,82.10
2017-07-25T09:15:17.654Z,83.74
2017-07-25T09:16:18.294Z,82.68
2017-07-25T09:17:18.936Z,82.68
2017-07-25T09:18:19.569Z,83.36
2017-07-25T09:19:20.209Z,85.57
2017-07-25T09:20:21.252Z,85.61
2017-07-25T09:21:21.886Z,83.55
2017-07-25T09:22:22.524Z,83.98
2017-07-25T09:23:23.167Z,84.84
2017-07-25T09:24:23.811Z,83.98
2017-07-25T09:25:24.446Z,85.52
2017-07-25T09:26:25.087Z,84.27
2017-07-25T09:27:25.724Z,81.85
2017-07-25T09:28:26.521Z,81.57
2017-07-25T09:29:27.162Z,80.60
2017-07-25T09:30:27.798Z,80.79
2017-07-25T09:31:28.437Z,83.11
2017-07-25T09:32:29.076Z,82.05
2017-07-25T09:33:29.723Z,83.98
2017-07-25T09:34:30.357Z,84.07
2017-07-25T09:35:30.997Z,81.47
2017-07-25T09:36:31.841Z,81.57
2017-07-25T09:37:32.483Z,80.89
2017-07-25T09:38:33.124Z,80.99
2017-07-25T09:39:33.760Z,83.11
2017-07-25T09:40:34.398Z,82.43
2017-07-25T09:41:35.038Z,82.14
2017-07-25T09:42:35.684Z,81.95
2017-07-25T09:43:36.321Z,82.96
2017-07-25T09:44:37.161Z,79.87
2017-07-25T09:45:37.802Z,80.45
2017-07-25T09:46:38.491Z,81.51
2017-07-25T09:47:39.131Z,81.99
2017-07-25T09:48:39.772Z,83.34
2017-07-25T09:49:40.416Z,82.18
2017-07-25T09:50:41.051Z,79.87
2017-07-25T09:51:41.690Z,80.45
2017-07-25T09:52:42.337Z,77.84
2017-07-25T09:53:43.176Z,79.87
2017-07-25T09:54:43.816Z,78.23
2017-07-25T09:55:44.453Z,78.91
2017-07-25T09:56:45.097Z,78.71
2017-07-25T09:57:45.735Z,79.00
2017-07-25T09:58:46.390Z,76.34
2017-07-25T09:59:47.036Z,77.30
2017-07-25T10:00:47.681Z,76.34
2017-07-25T10:01:48.472Z,78.17
2017-07-25T10:02:49.107Z,77.98
2017-07-25T10:03:49.797Z,78.94
2017-07-25T10:04:50.446Z,78.94
2017-07-25T10:05:51.084Z,79.14
2017-07-25T10:06:51.718Z,78.66
2017-07-25T10:07:52.359Z,75.09
2017-07-25T10:08:52.998Z,75.27
2017-07-25T10:09:53.872Z,75.27
2017-07-25T10:10:54.514Z,75.67
2017-07-25T10:11:55.157Z,75.95
2017-07-25T10:12:55.801Z,74.41
2017-07-25T10:13:56.445Z,75.67
2017-07-25T10:14:57.086Z,75.27
2017-07-25T10:15:57.777Z,75.47
2017-07-25T10:16:58.413Z,75.85
2017-07-25T10:17:59.254Z,75.18
2017-07-25T10:19:01.233Z,74.69
2017-07-25T10:20:01.539Z,73.48
2017-07-25T10:21:02.182Z,73.09
2017-07-25T10:22:02.825Z,72.71
2017-07-25T10:23:03.464Z,73.38
2017-07-25T10:24:04.107Z,73.96
2017-07-25T10:25:07.723Z,75.12
2017-07-25T10:26:08.842Z,74.35
2017-07-25T10:27:09.479Z,73.67
2017-07-25T10:28:10.134Z,74.54
2017-07-25T10:29:10.774Z,74.64
2017-07-25T10:30:11.413Z,73.19
2017-07-25T10:31:12.052Z,74.25
2017-07-25T10:32:12.693Z,75.99
2017-07-25T10:33:13.338Z,76.18
2017-07-25T10:34:15.761Z,75.41
2017-07-25T10:35:15.862Z,75.41
2017-07-25T10:36:25.743Z,74.48
2017-07-25T10:37:24.297Z,74.87
2017-07-25T10:38:25.197Z,75.35
2017-07-25T10:39:26.589Z,75.26
2017-07-25T10:40:27.229Z,77.86
2017-07-25T10:41:27.938Z,76.51
2017-07-25T10:42:28.567Z,78.21
2017-07-25T10:43:29.361Z,77.67
2017-07-25T10:44:29.998Z,77.19
2017-07-25T10:45:36.237Z,76.32
2017-07-25T10:46:36.832Z,78.44
2017-07-25T10:47:39.046Z,78.34
2017-07-25T10:48:39.112Z,78.83
2017-07-25T10:49:39.749Z,77.86
2017-07-25T10:50:40.390Z,76.42
2017-07-25T10:51:41.338Z,77.48
2017-07-25T10:52:41.981Z,78.06
2017-07-25T10:53:42.618Z,77.19
2017-07-25T10:54:43.259Z,77.38
2017-07-25T10:55:43.900Z,78.54
2017-07-25T10:56:44.547Z,78.73
2017-07-25T10:57:45.187Z,78.92
2017-07-25T10:58:45.828Z,77.96
2017-07-25T10:59:46.672Z,77.86
2017-07-25T11:00:48.889Z,78.83
2017-07-25T11:01:48.947Z,79.22
2017-07-25T11:02:49.592Z,79.22
2017-07-25T11:03:50.231Z,78.73
2017-07-25T11:04:50.889Z,79.80
2017-07-25T11:05:51.526Z,78.73
2017-07-25T11:06:52.166Z,78.92
2017-07-25T11:07:52.958Z,78.92
2017-07-25T11:08:53.694Z,78.92
2017-07-25T11:10:01.479Z,79.41
2017-07-25T11:11:01.409Z,78.92
2017-07-25T11:12:02.048Z,78.92
2017-07-25T11:13:02.689Z,78.92
2017-07-25T11:14:03.799Z,79.22
2017-07-25T11:15:05.365Z,79.70
2017-07-25T11:16:06.206Z,79.22
2017-07-25T11:17:06.851Z,79.12
2017-07-25T11:18:07.488Z,78.83
2017-07-25T11:19:08.135Z,78.64
2017-07-25T11:20:08.793Z,79.12
2017-07-25T11:21:09.476Z,79.16
2017-07-25T11:22:10.125Z,79.02
2017-07-25T11:23:10.765Z,78.92
2017-07-25T11:24:11.421Z,79.06
2017-07-25T11:25:12.215Z,79.06
2017-07-25T11:26:13.211Z,78.77
2017-07-25T11:31:48.856Z,78.58
2017-07-25T11:39:55.016Z,78.19
2017-07-25T11:41:09.153Z,78.00
2017-07-25T11:42:14.920Z,77.51
2017-07-25T11:43:17.148Z,77.71
2017-07-25T11:44:16.665Z,77.32
2017-07-25T11:45:21.011Z,77.03
2017-07-25T11:46:19.276Z,77.55
2017-07-25T11:47:20.945Z,76.59
2017-07-25T11:48:22.997Z,77.17
2017-07-25T11:49:23.402Z,76.39
2017-07-25T11:50:24.062Z,76.59
2017-07-25T11:51:24.698Z,76.39
2017-07-25T11:52:25.346Z,76.29
2017-07-25T11:53:25.996Z,75.71
2017-07-25T11:54:28.155Z,75.91
2017-07-25T11:55:28.942Z,75.81
2017-07-25T11:56:29.591Z,75.43
2017-07-25T11:59:09.971Z,74.88
2017-07-25T12:00:10.588Z,75.37
2017-07-25T12:01:11.265Z,75.46
2017-07-25T12:02:11.959Z,74.40
2017-07-25T12:03:12.604Z,74.49
2017-07-25T12:04:13.308Z,74.49
2017-07-25T12:05:15.522Z,73.72
2017-07-25T12:06:15.800Z,74.01
2017-07-25T12:07:16.446Z,73.63
2017-07-25T12:08:17.103Z,73.57
2017-07-25T12:09:17.742Z,73.66
2017-07-25T12:10:18.389Z,73.18
2017-07-25T12:11:19.055Z,73.08
2017-07-25T12:12:19.705Z,72.89
2017-07-25T12:13:20.729Z,72.24
2017-07-25T12:14:21.487Z,71.86
2017-07-25T12:15:22.210Z,71.47
2017-07-25T12:16:22.847Z,71.08
2017-07-25T12:17:23.528Z,71.31
2017-07-25T12:18:24.130Z,71.31
2017-07-25T12:19:24.774Z,70.54
2017-07-25T12:20:25.426Z,70.34
2017-07-25T12:21:26.072Z,69.95
2017-07-25T12:22:26.726Z,69.99
2017-07-25T12:23:27.579Z,69.21
2017-07-25T12:24:28.229Z,68.82
2017-07-25T12:25:28.877Z,68.73
2017-07-25T12:26:29.530Z,68.24
2017-07-25T12:27:30.174Z,68.37
2017-07-25T12:28:30.828Z,68.18
2017-07-25T12:29:31.530Z,67.21
2017-07-25T12:30:32.172Z,67.11
2017-07-25T12:31:32.971Z,67.21
2017-07-25T12:32:33.632Z,66.53
2017-07-25T12:33:34.277Z,66.47
2017-07-25T12:34:34.922Z,65.50
2017-07-25T12:35:35.583Z,65.40
2017-07-25T12:36:36.237Z,65.30
2017-07-25T12:37:36.880Z,64.82
2017-07-25T12:38:37.533Z,64.82
2017-07-25T12:39:38.331Z,64.92
2017-07-25T12:40:38.980Z,64.85
2017-07-25T12:41:39.629Z,64.95
2017-07-25T12:42:40.284Z,64.95
2017-07-25T12:43:40.928Z,64.56
2017-07-25T12:44:41.578Z,64.56
2017-07-25T12:45:42.231Z,63.88
2017-07-25T12:46:43.212Z,63.39
2017-07-25T12:47:43.967Z,63.68
2017-07-25T12:48:44.620Z,63.78
2017-07-25T12:49:45.266Z,63.88
2017-07-25T12:50:45.917Z,63.52
2017-07-25T12:51:46.571Z,63.13
2017-07-25T12:52:47.228Z,62.94
2017-07-25T12:53:47.874Z,63.04
2017-07-25T12:54:48.575Z,62.74
2017-07-25T12:55:49.372Z,62.94
2017-07-25T12:56:50.023Z,63.04
2017-07-25T12:57:50.732Z,62.35
2017-07-25T12:58:51.379Z,62.35
2017-07-25T12:59:52.024Z,62.38
2017-07-25T13:00:54.470Z,62.35
2017-07-25T13:01:54.323Z,62.55
2017-07-25T13:02:54.973Z,62.26
2017-07-25T13:03:55.621Z,62.00
2017-07-25T13:04:56.470Z,62.00
2017-07-25T13:05:57.126Z,61.80
2017-07-25T13:06:57.771Z,61.90
2017-07-25T13:07:58.436Z,61.71
2017-07-25T13:08:59.191Z,62.00
2017-07-25T13:09:59.835Z,61.71
2017-07-25T13:11:00.490Z,62.10
2017-07-25T13:12:01.142Z,61.41
2017-07-25T13:13:01.940Z,61.41
2017-07-25T13:14:02.592Z,61.22
2017-07-25T13:15:03.236Z,61.12
2017-07-25T13:16:03.896Z,61.22